Time;durP1;ratioP1;P1;durP2;ratioP2;P2;SDS_P1;SDS_P2;PMS_P1;PMS_P2;Temp;Humidity;BMP_temperature;BMP_pressure;BME280_temperature;BME280_humidity;BME280_pressure;Samples;Min_cycle;Max_cycle;Signal;HPM_P1;HPM_P2
2021/04/09 00:01:53;;;;;;;6.07;1.58;;;;;;;8.95;58.41;101521.66;4732887;30;20055;-76
2021/04/09 00:04:57;;;;;;;4.97;1.42;;;;;;;8.91;58.61;101521.94;4735951;30;20059;-77
2021/04/09 00:08:02;;;;;;;4.63;1.55;;;;;;;8.83;58.84;101521.56;4735631;30;20048;-77
2021/04/09 00:11:07;;;;;;;5.75;1.42;;;;;;;8.81;59.07;101520.78;4735924;30;20054;-77
2021/04/09 00:14:13;;;;;;;5.18;2.05;;;;;;;8.72;59.43;101519.53;4735960;30;20386;-77
2021/04/09 00:17:17;;;;;;;7.72;1.42;;;;;;;8.69;59.62;101522.38;4737017;30;20398;-76
2021/04/09 00:20:24;;;;;;;5.78;1.92;;;;;;;8.64;59.73;101520.97;4727125;30;20056;-77
2021/04/09 00:23:28;;;;;;;6.85;1.90;;;;;;;8.63;59.97;101524.59;4735638;30;20054;-76
2021/04/09 00:26:33;;;;;;;5.80;1.75;;;;;;;8.64;60.17;101523.66;4725625;30;20056;-77
2021/04/09 00:29:37;;;;;;;5.90;1.75;;;;;;;8.59;60.46;101536.44;4735830;30;20056;-75
2021/04/09 00:32:41;;;;;;;6.75;1.70;;;;;;;8.49;60.74;101526.28;4735776;30;20060;-77
2021/04/09 00:35:45;;;;;;;5.80;1.40;;;;;;;8.45;61.43;101530.09;4735795;30;20532;-77
2021/04/09 00:38:50;;;;;;;7.50;1.77;;;;;;;8.39;61.15;101530.47;4735438;30;20064;-77
2021/04/09 00:41:54;;;;;;;5.63;1.45;;;;;;;8.33;61.24;101535.31;4735075;30;20063;-77
2021/04/09 00:45:01;;;;;;;7.55;1.83;;;;;;;8.27;61.67;101527.69;4724503;30;20064;-77
2021/04/09 00:48:06;;;;;;;8.23;2.25;;;;;;;8.24;61.75;101531.38;4735582;30;20064;-77
2021/04/09 00:51:11;;;;;;;4.68;1.50;;;;;;;8.21;61.84;101528.00;4735956;30;20059;-77
2021/04/09 00:54:16;;;;;;;6.03;1.52;;;;;;;8.18;61.90;101529.03;4735315;30;20430;-77
2021/04/09 00:57:21;;;;;;;4.70;1.50;;;;;;;8.15;61.88;101537.25;4735560;30;20079;-77
2021/04/09 01:00:26;;;;;;;4.45;1.48;;;;;;;8.08;62.05;101535.88;4736451;30;20064;-76
2021/04/09 01:03:32;;;;;;;8.20;1.73;;;;;;;8.06;61.90;101539.59;4738023;30;20056;-76
2021/04/09 01:06:36;;;;;;;5.18;1.63;;;;;;;7.97;62.30;101538.34;4736238;30;20067;-78
2021/04/09 01:09:40;;;;;;;4.63;1.88;;;;;;;7.99;62.09;101543.59;4738296;30;20056;-75
2021/04/09 01:12:46;;;;;;;7.53;1.80;;;;;;;8.02;61.82;101538.94;4738903;30;20056;-76
2021/04/09 01:15:51;;;;;;;6.15;1.50;;;;;;;8.01;61.85;101539.88;4739054;30;20052;-74
2021/04/09 01:19:31;;;;;;;6.10;1.58;;;;;;;8.06;61.65;101529.78;4739479;30;20497;-77
2021/04/09 01:22:58;;;;;;;3.92;1.27;;;;;;;8.09;61.79;101537.63;4740241;30;20068;-75
2021/04/09 01:26:33;;;;;;;4.97;1.40;;;;;;;8.19;61.37;101549.50;4738887;30;20052;-76
2021/04/09 01:30:15;;;;;;;8.90;1.80;;;;;;;8.21;61.75;101552.06;4737065;30;20055;-75
2021/04/09 01:33:29;;;;;;;6.05;1.73;;;;;;;8.16;62.27;101549.69;4738537;30;20047;-77
2021/04/09 01:36:39;;;;;;;7.22;2.05;;;;;;;8.12;62.50;101566.00;4739100;30;20504;-77
2021/04/09 01:39:49;;;;;;;7.95;1.92;;;;;;;8.10;62.26;101566.06;4738664;30;20059;-77
2021/04/09 01:42:59;;;;;;;6.43;1.83;;;;;;;7.95;62.33;101553.56;4738690;30;20059;-77
2021/04/09 01:46:05;;;;;;;6.80;2.05;;;;;;;7.83;62.48;101556.97;4738638;30;20060;-75
2021/04/09 01:49:11;;;;;;;5.88;2.00;;;;;;;7.74;63.13;101562.84;4738314;30;20505;-75
2021/04/09 01:52:17;;;;;;;7.68;2.72;;;;;;;7.69;63.19;101564.91;4738927;30;20051;-77
2021/04/09 01:55:22;;;;;;;7.68;1.50;;;;;;;7.73;63.43;101566.44;4738395;30;20517;-77
2021/04/09 01:58:29;;;;;;;6.40;1.95;;;;;;;7.70;63.50;101569.31;4738297;30;20063;-77
2021/04/09 02:01:35;;;;;;;5.80;1.67;;;;;;;7.69;63.54;101567.59;4738384;30;20056;-77
2021/04/09 02:04:40;;;;;;;8.10;2.10;;;;;;;7.68;63.53;101565.84;4736791;30;20067;-78
2021/04/09 02:07:45;;;;;;;4.95;2.40;;;;;;;7.77;63.11;101579.59;4737391;30;20067;-76
2021/04/09 02:10:57;;;;;;;8.90;1.95;;;;;;;7.74;63.20;101566.38;4737506;30;20064;-76
2021/04/09 02:14:04;;;;;;;7.78;1.85;;;;;;;7.62;63.24;101569.75;4737675;30;20064;-76
2021/04/09 02:17:12;;;;;;;6.13;1.70;;;;;;;7.61;63.27;101577.84;4737723;30;20489;-77
2021/04/09 02:20:19;;;;;;;5.40;1.60;;;;;;;7.58;63.39;101573.53;4738259;30;20508;-76
2021/04/09 02:23:23;;;;;;;5.63;1.90;;;;;;;7.58;63.35;101565.50;4737446;30;20060;-76
2021/04/09 02:26:28;;;;;;;7.00;1.98;;;;;;;7.53;63.65;101570.25;4737195;30;20402;-75
2021/04/09 02:29:34;;;;;;;5.50;1.90;;;;;;;7.47;63.59;101572.41;4737519;30;20060;-77
2021/04/09 02:32:38;;;;;;;6.88;2.22;;;;;;;7.43;63.99;101574.38;4737722;30;20056;-77
2021/04/09 02:35:42;;;;;;;5.50;1.88;;;;;;;7.31;63.97;101571.53;4737486;30;20057;-77
2021/04/09 02:38:52;;;;;;;6.35;2.03;;;;;;;7.23;64.33;101572.78;4737824;30;20064;-77
2021/04/09 02:42:04;;;;;;;7.90;2.08;;;;;;;7.12;64.71;101574.34;4736963;30;20080;-77
2021/04/09 02:45:09;;;;;;;6.97;2.88;;;;;;;7.12;64.88;101574.34;4736229;30;20063;-77
2021/04/09 02:48:14;;;;;;;6.65;2.08;;;;;;;7.15;64.71;101580.38;4737675;30;20064;-77
2021/04/09 02:51:22;;;;;;;10.15;2.97;;;;;;;7.19;64.86;101581.06;4737249;30;20104;-77
2021/04/09 02:54:30;;;;;;;7.50;2.25;;;;;;;7.10;65.05;101577.09;4736908;30;20059;-76
2021/04/09 02:57:35;;;;;;;5.07;2.30;;;;;;;7.07;65.36;101573.72;4736482;30;20060;-77
2021/04/09 03:00:43;;;;;;;9.20;2.22;;;;;;;6.96;65.46;101574.28;4735621;30;20060;-77
2021/04/09 03:03:48;;;;;;;5.72;2.10;;;;;;;6.91;65.11;101568.31;4736640;30;20056;-77
2021/04/09 03:06:53;;;;;;;6.70;2.40;;;;;;;6.80;65.40;101578.72;4736605;30;20101;-77
2021/04/09 03:09:58;;;;;;;8.73;2.97;;;;;;;6.74;65.46;101576.38;4736827;30;20421;-77
2021/04/09 03:13:04;;;;;;;6.60;1.98;;;;;;;6.71;65.53;101570.34;4737073;30;20059;-76
2021/04/09 03:16:11;;;;;;;9.38;2.50;;;;;;;6.70;65.48;101572.16;4735269;30;20064;-76
2021/04/09 03:19:15;;;;;;;8.57;2.50;;;;;;;6.71;65.29;101579.22;4735728;30;20165;-76
2021/04/09 03:22:20;;;;;;;6.82;2.50;;;;;;;6.64;65.38;101575.13;4735961;30;20405;-76
2021/04/09 03:25:24;;;;;;;8.55;2.95;;;;;;;6.62;65.34;101579.69;4735153;30;20059;-76
2021/04/09 03:28:29;;;;;;;9.02;2.67;;;;;;;6.57;65.37;101577.25;4735971;30;20052;-77
2021/04/09 03:31:35;;;;;;;6.90;2.50;;;;;;;6.65;65.13;101582.19;4735601;30;20055;-77
2021/04/09 03:34:40;;;;;;;9.20;2.92;;;;;;;6.63;65.04;101581.41;4718850;30;20056;-74
2021/04/09 03:37:45;;;;;;;9.73;3.13;;;;;;;6.48;65.44;101577.75;4718533;30;20056;-75
2021/04/09 03:40:50;;;;;;;6.82;3.65;;;;;;;6.40;65.78;101581.72;4718339;30;20517;-75
2021/04/09 03:43:54;;;;;;;7.47;3.70;;;;;;;6.49;65.68;101589.28;4719033;30;20060;-76
2021/04/09 03:46:58;;;;;;;8.43;2.95;;;;;;;6.51;65.46;101595.38;4718964;30;20060;-76
2021/04/09 03:50:05;;;;;;;7.47;3.15;;;;;;;6.43;65.21;101594.91;4719037;30;20386;-75
2021/04/09 03:53:09;;;;;;;11.52;3.95;;;;;;;6.37;65.14;101589.91;4718503;30;20539;-77
2021/04/09 03:56:14;;;;;;;10.10;3.92;;;;;;;6.33;65.42;101591.84;4718876;30;20064;-76
2021/04/09 03:59:18;;;;;;;7.25;2.83;;;;;;;6.28;65.78;101601.00;4718593;30;20056;-76
2021/04/09 04:02:22;;;;;;;10.70;3.80;;;;;;;6.27;65.85;101591.31;4718809;30;20056;-77
2021/04/09 04:05:26;;;;;;;21.17;4.07;;;;;;;6.30;65.32;101596.47;4724693;30;20083;-76
2021/04/09 04:08:31;;;;;;;8.27;3.00;;;;;;;6.36;65.45;101599.69;4735671;30;20074;-76
2021/04/09 04:11:36;;;;;;;12.02;2.83;;;;;;;6.35;65.30;101586.44;4736301;30;20485;-76
2021/04/09 04:14:41;;;;;;;7.43;2.60;;;;;;;6.36;65.63;101589.03;4735897;30;20063;-76
2021/04/09 04:17:45;;;;;;;10.10;2.78;;;;;;;6.43;65.18;101597.56;4717645;30;20076;-76
2021/04/09 04:20:49;;;;;;;8.15;2.70;;;;;;;6.44;65.10;101596.66;4718495;30;20074;-75
2021/04/09 04:23:54;;;;;;;11.25;2.90;;;;;;;6.41;65.05;101599.47;4718062;30;20060;-75
2021/04/09 04:26:59;;;;;;;10.18;2.80;;;;;;;6.40;64.84;101600.38;4718644;30;20084;-74
2021/04/09 04:30:05;;;;;;;8.27;2.78;;;;;;;6.39;64.95;101594.19;4718374;30;20060;-75
2021/04/09 04:33:09;;;;;;;11.05;3.08;;;;;;;6.43;65.04;101605.56;4718507;30;20505;-76
2021/04/09 04:36:13;;;;;;;10.40;3.50;;;;;;;6.43;65.22;101602.91;4717380;30;20489;-75
2021/04/09 04:39:18;;;;;;;10.82;2.80;;;;;;;6.44;65.48;101593.97;4727379;30;20064;-76
2021/04/09 04:42:23;;;;;;;13.95;3.10;;;;;;;6.58;64.89;101588.78;4718154;30;20413;-75
2021/04/09 04:45:27;;;;;;;12.02;2.90;;;;;;;6.72;64.71;101596.06;4718089;30;20450;-76
2021/04/09 04:48:32;;;;;;;8.13;2.90;;;;;;;6.70;64.41;101600.63;4727394;30;20076;-74
2021/04/09 04:51:36;;;;;;;11.07;3.10;;;;;;;6.66;64.83;101594.59;4718148;30;20056;-77
2021/04/09 04:54:40;;;;;;;7.63;2.40;;;;;;;6.66;64.87;101596.41;4717554;30;20052;-77
2021/04/09 04:57:44;;;;;;;11.00;2.88;;;;;;;6.61;64.64;101601.13;4717587;30;20500;-76
2021/04/09 05:00:49;;;;;;;7.32;3.00;;;;;;;6.61;64.98;101606.44;4717824;30;20052;-75
2021/04/09 05:03:53;;;;;;;10.95;2.75;;;;;;;6.66;64.86;101599.06;4717947;30;20056;-76
2021/04/09 05:06:58;;;;;;;7.55;3.20;;;;;;;6.68;64.78;101603.38;4717886;30;20056;-75
2021/04/09 05:10:02;;;;;;;12.27;3.05;;;;;;;6.84;64.75;101601.63;4718128;30;20060;-78
2021/04/09 05:13:06;;;;;;;60.53;39.13;;;;;;;7.49;63.22;101603.44;4717608;30;20060;-76
2021/04/09 05:16:11;;;;;;;24.80;14.07;;;;;;;8.18;60.47;101603.06;4717140;30;20056;-78
2021/04/09 05:19:15;;;;;;;8.90;2.83;;;;;;;8.52;58.81;101611.72;4718000;30;20060;-77
2021/04/09 05:22:19;;;;;;;8.07;2.28;;;;;;;8.61;58.12;101610.34;4717216;30;20076;-76
2021/04/09 05:25:24;;;;;;;10.35;2.25;;;;;;;8.14;59.15;101607.75;4717751;30;20394;-76
2021/04/09 05:28:28;;;;;;;7.60;2.80;;;;;;;8.40;59.26;101617.81;4717989;30;20064;-76
2021/04/09 05:31:33;;;;;;;11.35;2.97;;;;;;;8.89;57.36;101609.50;4717601;30;20057;-77
2021/04/09 05:34:39;;;;;;;11.50;2.33;;;;;;;8.66;57.68;101615.41;4717569;30;20070;-76
2021/04/09 05:37:43;;;;;;;17.60;2.42;;;;;;;8.33;58.60;101611.09;4716284;30;20060;-77
2021/04/09 05:40:47;;;;;;;11.30;2.65;;;;;;;8.13;59.52;101611.34;4716390;30;20072;-77
2021/04/09 05:43:51;;;;;;;8.82;2.85;;;;;;;8.67;58.64;101609.94;4717634;30;20064;-75
2021/04/09 05:46:55;;;;;;;10.35;2.83;;;;;;;10.99;52.01;101609.94;4717562;30;20069;-75
2021/04/09 05:50:00;;;;;;;8.45;2.65;;;;;;;11.91;48.53;101605.13;4720631;30;20060;-76
2021/04/09 05:53:04;;;;;;;6.18;2.20;;;;;;;12.12;48.11;101600.84;4720751;30;20519;-75
2021/04/09 05:56:08;;;;;;;7.40;2.75;;;;;;;12.88;46.13;101614.75;4720966;30;20056;-75
2021/04/09 05:59:12;;;;;;;6.30;2.42;;;;;;;12.44;47.02;101613.72;4709390;30;20064;-77
2021/04/09 06:02:17;;;;;;;11.30;3.30;;;;;;;11.91;48.81;101613.19;4733581;30;20063;-76
2021/04/09 06:05:22;;;;;;;10.13;3.10;;;;;;;11.55;49.94;101610.47;4738038;30;20063;-77
2021/04/09 06:08:26;;;;;;;10.20;2.97;;;;;;;11.07;51.38;101615.66;4737332;30;20394;-76
2021/04/09 06:11:31;;;;;;;6.85;3.17;;;;;;;10.87;52.63;101624.22;4737893;30;20057;-76
2021/04/09 06:14:35;;;;;;;10.18;3.30;;;;;;;10.54;54.41;101617.63;4735159;30;20417;-77
2021/04/09 06:17:39;;;;;;;17.30;3.95;;;;;;;10.35;55.50;101626.88;4736206;30;20113;-77
2021/04/09 06:20:44;;;;;;;9.35;3.35;;;;;;;10.23;56.10;101624.16;4736062;30;20516;-76
2021/04/09 06:23:48;;;;;;;9.07;3.10;;;;;;;10.33;55.38;101622.59;4736532;30;20055;-75
2021/04/09 06:26:54;;;;;;;10.93;4.00;;;;;;;10.36;55.77;101625.06;4736879;30;20059;-76
2021/04/09 06:29:59;;;;;;;12.95;4.10;;;;;;;10.44;55.49;101628.13;4737801;30;20071;-76
2021/04/09 06:33:04;;;;;;;13.80;3.90;;;;;;;10.54;55.23;101626.53;4735326;30;20055;-76
2021/04/09 06:36:09;;;;;;;9.93;2.78;;;;;;;10.78;54.55;101624.88;4738116;30;20060;-79
2021/04/09 06:39:13;;;;;;;10.18;3.25;;;;;;;10.89;54.16;101626.78;4737288;30;20100;-76
2021/04/09 06:42:18;;;;;;;13.82;3.15;;;;;;;10.97;54.51;101627.13;4736670;30;20076;-76
2021/04/09 06:45:24;;;;;;;12.73;3.55;;;;;;;11.13;53.94;101635.00;4737171;30;20433;-76
2021/04/09 06:48:29;;;;;;;11.63;3.10;;;;;;;11.22;53.74;101631.66;4736448;30;20397;-76
2021/04/09 06:51:34;;;;;;;11.27;2.85;;;;;;;11.30;53.38;101640.06;4737085;30;20064;-76
2021/04/09 06:54:41;;;;;;;15.55;4.07;;;;;;;11.26;53.19;101635.88;4736507;30;20126;-76
2021/04/09 06:57:47;;;;;;;9.25;3.00;;;;;;;11.12;53.33;101634.13;4737266;30;20077;-77
2021/04/09 07:00:52;;;;;;;11.35;2.65;;;;;;;10.98;53.64;101632.41;4736669;30;20406;-77
2021/04/09 07:03:57;;;;;;;11.05;2.83;;;;;;;11.03;53.82;101642.84;4737198;30;20055;-76
2021/04/09 07:07:08;;;;;;;11.25;2.53;;;;;;;11.13;53.93;101650.13;4736872;30;20509;-77
2021/04/09 07:10:13;;;;;;;10.57;2.40;;;;;;;11.11;52.91;101645.84;4735282;30;20064;-78
2021/04/09 07:13:17;;;;;;;11.73;3.38;;;;;;;11.03;53.37;101635.66;4737418;30;20059;-77
2021/04/09 07:16:22;;;;;;;7.82;2.70;;;;;;;11.21;53.15;101646.09;4736732;30;20060;-77
2021/04/09 07:19:34;;;;;;;7.97;3.13;;;;;;;11.19;52.98;101648.00;4736800;30;20504;-78
2021/04/09 07:22:39;;;;;;;13.80;2.88;;;;;;;11.18;52.76;101638.22;4736929;30;20071;-78
2021/04/09 07:25:45;;;;;;;11.52;2.78;;;;;;;11.17;52.94;101628.44;4735609;30;20060;-77
2021/04/09 07:28:49;;;;;;;7.43;2.47;;;;;;;11.27;53.82;101638.44;4736606;30;20045;-77
2021/04/09 07:31:53;;;;;;;10.75;2.70;;;;;;;11.58;53.21;101634.41;4736105;30;20071;-76
2021/04/09 07:35:06;;;;;;;11.30;2.70;;;;;;;11.89;52.54;101644.75;4735294;30;20063;-77
2021/04/09 07:38:23;;;;;;;12.15;3.22;;;;;;;12.21;51.85;101636.97;4736235;30;20139;-76
2021/04/09 07:41:27;;;;;;;10.88;3.25;;;;;;;12.37;51.61;101635.72;4735617;30;20421;-75
2021/04/09 07:44:32;;;;;;;12.77;3.30;;;;;;;12.51;51.29;101644.59;4734339;30;20063;-77
2021/04/09 07:47:36;;;;;;;9.90;3.38;;;;;;;12.70;52.65;101640.41;4736192;30;20478;-78
2021/04/09 07:50:47;;;;;;;7.13;3.42;;;;;;;12.91;54.43;101638.75;4735979;30;20512;-77
2021/04/09 07:53:51;;;;;;;14.10;3.85;;;;;;;13.46;53.73;101632.63;4735995;30;20056;-78
2021/04/09 07:56:56;;;;;;;16.38;3.83;;;;;;;13.98;53.11;101625.72;4735776;30;20056;-77
2021/04/09 08:00:00;;;;;;;16.17;4.03;;;;;;;14.34;52.07;101631.66;4735953;30;20405;-78
2021/04/09 08:03:06;;;;;;;15.25;4.43;;;;;;;15.53;49.06;101627.72;4735445;30;20053;-78
2021/04/09 08:06:14;;;;;;;12.80;5.07;;;;;;;17.03;45.66;101633.72;4735451;30;20052;-77
2021/04/09 08:09:19;;;;;;;8.52;3.67;;;;;;;18.24;43.09;101624.53;4736192;30;20505;-78
2021/04/09 08:12:31;;;;;;;14.40;4.43;;;;;;;20.71;37.79;101618.28;4729985;30;20080;-77
2021/04/09 08:15:35;;;;;;;19.55;3.80;;;;;;;25.87;28.28;101616.03;4732917;30;20052;-77
2021/04/09 08:18:41;;;;;;;7.13;2.80;;;;;;;30.91;21.73;101601.66;4735513;30;20074;-76
2021/04/09 08:21:54;;;;;;;10.63;3.22;;;;;;;27.47;24.38;101617.91;4733577;30;20052;-79
2021/04/09 08:24:58;;;;;;;7.97;2.47;;;;;;;26.73;25.32;101622.72;4731696;30;20055;-79
2021/04/09 08:28:09;;;;;;;9.48;2.78;;;;;;;25.87;26.57;101627.03;4734488;30;20063;-80
2021/04/09 08:31:15;;;;;;;10.25;3.28;;;;;;;23.85;29.18;101633.00;4734537;30;20052;-78
2021/04/09 08:34:23;;;;;;;11.02;2.20;;;;;;;23.11;29.26;101628.44;4728277;30;20413;-77
2021/04/09 08:37:29;;;;;;;9.57;2.47;;;;;;;22.19;30.09;101636.81;4733031;30;20075;-78
2021/04/09 08:40:34;;;;;;;8.05;2.53;;;;;;;20.27;33.99;101641.38;4736173;30;20063;-76
2021/04/09 08:43:40;;;;;;;8.90;2.00;;;;;;;20.10;34.52;101634.97;4737576;30;20394;-77
2021/04/09 08:46:46;;;;;;;13.73;2.33;;;;;;;19.89;35.43;101643.59;4734401;30;20050;-76
2021/04/09 08:49:50;;;;;;;7.80;1.88;;;;;;;21.27;32.51;101634.66;4735573;30;20045;-77
2021/04/09 08:52:54;;;;;;;8.15;2.17;;;;;;;21.58;32.41;101636.66;4735439;30;20055;-76
2021/04/09 08:56:00;;;;;;;8.18;2.30;;;;;;;20.39;34.03;101626.41;4735480;30;20059;-77
2021/04/09 08:59:04;;;;;;;8.90;2.85;;;;;;;21.76;32.23;101629.94;4729397;30;20068;-78
2021/04/09 09:02:26;;;;;;;10.23;2.50;;;;;;;22.77;30.37;101627.19;4734582;30;20060;-78
2021/04/09 09:05:33;;;;;;;8.32;2.28;;;;;;;23.21;29.31;101617.22;4730356;30;20060;-77
2021/04/09 09:08:43;;;;;;;11.70;2.30;;;;;;;22.67;30.43;101624.72;4733899;30;20055;-78
2021/04/09 09:11:54;;;;;;;10.25;3.30;;;;;;;21.94;31.29;101635.19;4717275;30;20386;-79
2021/04/09 09:14:59;;;;;;;11.48;3.38;;;;;;;21.83;31.20;101630.06;4726870;30;20071;-79
2021/04/09 09:18:03;;;;;;;6.28;2.60;;;;;;;21.38;31.78;101623.38;4735083;30;20093;-77
2021/04/09 09:21:13;;;;;;;4.30;1.90;;;;;;;20.95;32.51;101618.28;4734768;30;20437;-77
2021/04/09 09:24:20;;;;;;;5.95;2.38;;;;;;;20.19;34.15;101619.50;4738031;30;20064;-78
2021/04/09 09:27:47;;;;;;;12.23;2.70;;;;;;;20.02;34.62;101608.53;4737019;30;20060;-78
2021/04/09 09:30:55;;;;;;;7.40;2.45;;;;;;;19.68;34.59;101612.31;4737532;30;20060;-78
2021/04/09 09:34:21;;;;;;;7.38;3.20;;;;;;;19.28;35.63;101619.19;4737749;30;20056;-77
2021/04/09 09:37:27;;;;;;;6.88;2.83;;;;;;;18.40;37.49;101630.13;4738013;30;20081;-76
2021/04/09 09:40:42;;;;;;;10.93;3.10;;;;;;;18.09;38.43;101626.94;4737393;30;20056;-78
2021/04/09 09:43:46;;;;;;;9.05;2.38;;;;;;;17.71;38.90;101628.97;4737416;30;20053;-76
2021/04/09 09:46:56;;;;;;;8.57;2.78;;;;;;;17.35;39.42;101625.22;4737764;30;20405;-75
2021/04/09 09:50:03;;;;;;;9.75;2.85;;;;;;;16.89;40.92;101624.16;4737482;30;20121;-76
2021/04/09 09:53:08;;;;;;;8.77;3.13;;;;;;;16.89;41.65;101615.16;4736819;30;20074;-76
2021/04/09 09:56:26;;;;;;;10.82;2.92;;;;;;;16.76;41.45;101610.03;4733808;30;20048;-77
2021/04/09 09:59:31;;;;;;;10.77;3.42;;;;;;;16.98;41.59;101608.03;4736159;30;20080;-77
2021/04/09 10:02:35;;;;;;;9.02;2.95;;;;;;;17.10;41.19;101607.72;4736016;30;20410;-78
2021/04/09 10:05:43;;;;;;;10.45;3.35;;;;;;;17.34;40.77;101605.34;4734695;30;20075;-77
2021/04/09 10:08:47;;;;;;;7.60;2.45;;;;;;;17.24;39.95;101603.66;4737043;30;20053;-75
2021/04/09 10:11:51;;;;;;;6.13;2.72;;;;;;;17.16;39.81;101598.97;4737332;30;20079;-76
2021/04/09 10:14:56;;;;;;;6.40;2.60;;;;;;;17.41;39.84;101601.03;4736563;30;20063;-76
2021/04/09 10:18:05;;;;;;;15.40;3.60;;;;;;;17.53;39.97;101599.03;4736971;30;20553;-78
2021/04/09 10:21:13;;;;;;;11.50;3.17;;;;;;;17.82;38.48;101588.91;4736792;30;20437;-78
2021/04/09 10:24:20;;;;;;;5.25;2.35;;;;;;;18.09;37.21;101590.75;4736817;30;20508;-78
2021/04/09 10:27:25;;;;;;;8.85;2.80;;;;;;;17.98;38.19;101599.94;4736833;30;20052;-78
2021/04/09 10:30:33;;;;;;;9.65;2.90;;;;;;;17.84;38.98;101586.03;4735526;30;20064;-77
2021/04/09 10:33:39;;;;;;;7.53;2.85;;;;;;;18.32;38.24;101575.69;4735326;30;20078;-76
2021/04/09 10:36:45;;;;;;;6.57;2.78;;;;;;;18.26;38.04;101583.59;4720336;30;20060;-76
2021/04/09 10:39:51;;;;;;;4.65;2.20;;;;;;;17.91;37.88;101585.28;4736524;30;20524;-76
2021/04/09 10:43:00;;;;;;;7.72;2.17;;;;;;;17.93;38.55;101579.66;4736786;30;20061;-76
2021/04/09 10:46:13;;;;;;;8.68;2.30;;;;;;;18.22;36.64;101569.47;4736351;30;20064;-77
2021/04/09 10:49:19;;;;;;;8.43;2.40;;;;;;;18.38;36.76;101579.66;4736376;30;20056;-77
2021/04/09 10:52:31;;;;;;;6.07;1.80;;;;;;;18.59;35.72;101566.63;4726139;30;20052;-77
2021/04/09 10:55:35;;;;;;;9.02;1.98;;;;;;;18.67;34.68;101566.69;4725004;30;20175;-76
2021/04/09 10:58:43;;;;;;;7.97;2.65;;;;;;;18.33;36.58;101569.25;4736095;30;20057;-77
2021/04/09 11:01:48;;;;;;;6.65;2.35;;;;;;;18.36;37.64;101560.78;4736138;30;20076;-77
2021/04/09 11:05:00;;;;;;;9.75;2.50;;;;;;;18.40;37.73;101558.59;4734228;30;20067;-75
2021/04/09 11:08:05;;;;;;;6.70;2.30;;;;;;;18.28;37.32;101557.97;4736380;30;20417;-75
2021/04/09 11:11:14;;;;;;;7.63;2.70;;;;;;;18.38;36.95;101553.31;4736128;30;20060;-78
2021/04/09 11:14:19;;;;;;;6.68;2.25;;;;;;;18.48;37.51;101545.97;4735853;30;20052;-77
2021/04/09 11:17:25;;;;;;;4.82;1.90;;;;;;;18.65;36.66;101547.81;4736010;30;20122;-77
2021/04/09 11:20:33;;;;;;;7.68;1.90;;;;;;;18.66;35.73;101551.41;4735835;30;20056;-78
2021/04/09 11:23:39;;;;;;;7.82;2.28;;;;;;;18.64;35.37;101537.94;4735947;30;20067;-78
2021/04/09 11:26:43;;;;;;;7.47;2.13;;;;;;;18.52;35.78;101536.47;4734759;30;20079;-76
2021/04/09 11:29:49;;;;;;;4.40;1.80;;;;;;;18.58;35.95;101538.59;4730833;30;20064;-76
2021/04/09 11:32:53;;;;;;;7.47;1.85;;;;;;;18.45;34.61;101532.66;4736022;30;20060;-78
2021/04/09 11:36:14;;;;;;;3.85;1.67;;;;;;;18.33;34.90;101536.63;4734679;30;20060;-78
2021/04/09 11:39:20;;;;;;;4.70;1.58;;;;;;;18.46;35.70;101528.97;4730392;30;20063;-78
2021/04/09 11:42:35;;;;;;;7.85;2.10;;;;;;;18.32;35.89;101515.03;4734893;30;20052;-77
2021/04/09 11:45:47;;;;;;;6.05;2.08;;;;;;;18.20;35.31;101517.97;4733514;30;20060;-78
2021/04/09 11:49:00;;;;;;;7.03;2.40;;;;;;;18.10;36.20;101514.47;4735318;30;20511;-78
2021/04/09 11:52:06;;;;;;;5.47;2.20;;;;;;;17.90;37.79;101518.34;4735672;30;20199;-78
2021/04/09 11:55:14;;;;;;;9.43;2.28;;;;;;;17.57;38.31;101518.13;4735217;30;20055;-77
2021/04/09 11:58:21;;;;;;;13.35;2.40;;;;;;;17.27;39.41;101511.09;4735741;30;20072;-79
2021/04/09 12:01:26;;;;;;;7.72;2.38;;;;;;;17.13;38.56;101515.19;4734606;30;20052;-77
2021/04/09 12:04:40;;;;;;;5.07;2.33;;;;;;;17.12;38.84;101505.31;4732540;30;20051;-78
2021/04/09 12:07:44;;;;;;;7.15;2.17;;;;;;;17.11;38.47;101508.19;4734324;30;20512;-78
2021/04/09 12:10:49;;;;;;;6.80;2.20;;;;;;;17.41;37.90;101503.31;4734781;30;20405;-77
2021/04/09 12:13:53;;;;;;;5.35;2.17;;;;;;;17.33;37.93;101502.38;4735462;30;20059;-77
2021/04/09 12:16:58;;;;;;;4.97;2.00;;;;;;;17.41;36.69;101502.47;4733504;30;20052;-77
2021/04/09 12:20:09;;;;;;;4.55;2.15;;;;;;;17.81;35.82;101494.81;4735055;30;20072;-79
2021/04/09 12:23:14;;;;;;;13.13;2.13;;;;;;;18.03;35.51;101494.38;4732861;30;20060;-75
2021/04/09 12:26:19;;;;;;;5.30;2.13;;;;;;;18.05;36.27;101481.47;4733146;30;20079;-77
2021/04/09 12:29:25;;;;;;;4.50;2.15;;;;;;;18.29;35.11;101482.72;4725512;30;20545;-77
2021/04/09 12:32:29;;;;;;;4.18;1.73;;;;;;;18.58;35.62;101476.03;4718853;30;20064;-75
2021/04/09 12:35:34;;;;;;;6.30;2.05;;;;;;;18.48;35.13;101467.13;4733634;30;20059;-78
2021/04/09 12:38:38;;;;;;;15.65;2.38;;;;;;;18.21;35.66;101464.47;4734309;30;20060;-79
2021/04/09 12:41:43;;;;;;;6.68;1.98;;;;;;;18.29;35.47;101464.56;4751298;30;20053;-79
2021/04/09 12:44:48;;;;;;;5.90;1.90;;;;;;;18.46;34.77;101457.38;4732852;30;20528;-79
2021/04/09 12:47:52;;;;;;;4.93;2.42;;;;;;;18.46;34.55;101458.28;4730329;30;20052;-77
2021/04/09 12:50:57;;;;;;;9.02;3.97;;;;;;;18.72;34.95;101447.38;4727882;30;20067;-80
2021/04/09 12:54:03;;;;;;;5.95;1.90;;;;;;;18.43;36.77;101447.66;4720467;30;20081;-82
2021/04/09 12:57:08;;;;;;;9.25;2.22;;;;;;;18.26;36.89;101445.84;4727938;30;20378;-79
2021/04/09 13:00:13;;;;;;;6.65;2.13;;;;;;;18.29;37.28;101431.94;4720958;30;20134;-81
2021/04/09 13:03:18;;;;;;;8.27;2.90;;;;;;;18.10;37.00;101434.81;4738311;30;20068;-81
2021/04/09 13:06:22;;;;;;;7.68;2.53;;;;;;;18.04;37.55;101435.47;4735595;30;20536;-81
2021/04/09 13:09:26;;;;;;;6.95;2.83;;;;;;;18.01;37.11;101424.91;4738159;30;20068;-80
2021/04/09 13:12:30;;;;;;;5.82;2.30;;;;;;;17.98;37.01;101430.63;4737933;30;20056;-81
2021/04/09 13:15:35;;;;;;;7.93;3.13;;;;;;;17.63;37.58;101414.38;4733435;30;20051;-81
2021/04/09 13:18:39;;;;;;;7.05;2.30;;;;;;;17.71;37.22;101415.28;4738230;30;20056;-80
2021/04/09 13:21:44;;;;;;;9.95;2.30;;;;;;;17.67;37.40;101407.59;4730861;30;20064;-80
2021/04/09 13:24:48;;;;;;;7.82;2.60;;;;;;;17.41;37.55;101399.31;4724089;30;20059;-81
2021/04/09 13:27:53;;;;;;;5.35;1.95;;;;;;;17.53;37.79;101406.25;4729779;30;20065;-81
2021/04/09 13:30:59;;;;;;;5.45;2.03;;;;;;;17.66;36.54;101400.44;4730670;30;20048;-82
2021/04/09 13:34:03;;;;;;;9.85;2.72;;;;;;;17.78;36.29;101385.63;4737292;30;20068;-81
2021/04/09 13:37:08;;;;;;;6.15;2.13;;;;;;;17.67;36.20;101400.31;4720809;30;20403;-80
2021/04/09 13:40:14;;;;;;;6.07;2.40;;;;;;;17.60;36.84;101391.09;4738915;30;20063;-82
2021/04/09 13:43:27;;;;;;;6.80;2.17;;;;;;;17.73;37.12;101387.94;4737732;30;20057;-83
2021/04/09 13:46:32;;;;;;;6.20;2.45;;;;;;;17.75;36.43;101388.69;4736835;30;20055;-82
2021/04/09 13:49:36;;;;;;;8.23;2.00;;;;;;;17.79;35.68;101380.06;4737350;30;20060;-81
2021/04/09 13:52:40;;;;;;;10.75;2.30;;;;;;;17.82;35.57;101368.88;4736485;30;20056;-78
2021/04/09 13:55:45;;;;;;;6.95;2.15;;;;;;;18.00;35.94;101371.56;4735305;30;20045;-82
2021/04/09 13:58:50;;;;;;;4.70;2.05;;;;;;;18.16;34.97;101366.25;4736984;30;20064;-81
2021/04/09 14:01:55;;;;;;;5.10;1.90;;;;;;;18.17;36.16;101363.38;4734691;30;20058;-82
2021/04/09 14:05:02;;;;;;;8.80;1.92;;;;;;;18.29;36.17;101355.84;4728492;30;20059;-81
2021/04/09 14:08:06;;;;;;;8.63;2.08;;;;;;;18.30;35.98;101352.09;4736552;30;20072;-80
2021/04/09 14:11:10;;;;;;;10.25;2.38;;;;;;;18.33;36.08;101354.50;4738581;30;20056;-79
2021/04/09 14:14:14;;;;;;;4.82;2.17;;;;;;;18.34;36.32;101358.06;4735335;30;20061;-88
2021/04/09 14:17:19;;;;;;;7.82;2.05;;;;;;;18.42;36.03;101344.53;4735906;30;20557;-82
2021/04/09 14:20:24;;;;;;;9.15;2.30;;;;;;;18.58;35.66;101328.31;4726266;30;20060;-81
2021/04/09 14:23:28;;;;;;;11.52;2.67;;;;;;;18.79;35.63;101329.59;4728707;30;20209;-80
2021/04/09 14:26:33;;;;;;;10.25;2.88;;;;;;;18.77;34.68;101331.66;4734630;30;20060;-81
2021/04/09 14:29:39;;;;;;;46.55;36.55;;;;;;;18.61;34.42;101331.59;4730233;30;20069;-77